Record high temperature 35.0°C Record low temperature -18.6°C Record high gust 29.9 m/s Record high average 28.7 m/s Record daily rain 64.6 mm Record low windchill -62.6°C Record high barometer 1046.9 hPa Record low barometer 812.0 hPa
Daily high pressure 1011.1 hPa Daily low pressure 1006.3 hPa Daily low windchill 14.1°C Daily high heat index 25.4°C Daily high gust speed 5.7 m/s E Daily high average speed 3.1 m/s NNE
Weerpagina Nieuwendam
LAST READING AT TIME: 22:42 DATE: 15 July 2024, time of next update: 23:42
Current WeatherNacht/Lichte regen Current Temperature 19.1°C (66.3°F) (Heat Index 19.1°C ), Apparent temp 20.0°C
Maximum Temperature (since midnight)25.4°C at: 15:58 Minimum Temperature (since midnight)14.3°C at: 05:36
Average windspeed (ten minute)1.3 m/s Wind Direction (ten minute)NNE (23°)
Windchill Temperature 19.1°C Maximum Gust (last hour)2.5 m/s at: 22:40
Maximum Gust (since midnight)5.7 m/s at: 15:11 Maximum 1 minute average (since midnight)3.1 m/s at: 16:54
Rainfall (last hour)0.8 mm Rainfall (since midnight)1.0 mm (0.04 in.) at 22:37
Rainfall This month 71.6 mm (2.82 in.) Rainfall To date this year 533.1 mm (20.99 in.)
Maximum rain per minute (last hour)0.2 mm/min Maximum rain per hour (last 6 hours)0.8 mm/hour
Yesterdays rainfall 0.0 mm DewPoint 17.4°C (Wet Bulb :18.0°C )
Humidity 90 %, Humidex 24.6°C Barometer corrected to msl1006.3 hPa
Pressure change -0.2 hPa (last hour) Trend (last hour)STEADY
Pressure change (last 12 hours)-4.4 hPa Pressure change (last 6 hours)-2.2 hPa
Current solar 0 W/mē Current UV0.0
Maximum solar (since midnight) 939 W/mē Maximum UV (since midnight)7.4
Current 06:45 hours of sunshine today, current sky: Nacht/Lichte regen
Sunshine hours for the year: 585:01 hrs Sunshine hours for the month: 47:01 hrs
Current evapotranspiration rate 4.8 mm per day. Yesterday's reading 5.0
Lightning counts 0 since noon
Time of last strike 16:45:50 2011/09/02Counts in the last 30 minutes 0


Click here for the last 24 hour graph
Click here for the last 48 hour graph
Click here for the last 72 hour graph
Click here for the month to date graph
Click here to listen to the current weather conditions

Weather report/warning/Metars

Amsterdam Airport Schiphol, Netherlands (EHAM) 52-18N 004-46E -2M
Jul 15, 2024 - 04:25 PM EDT / 2024.07.15 2025 UTC
Wind: Variable at 5 MPH (4 KT):0
Visibility: 3 mile(s):0
Sky conditions: partly cloudy
Weather: rain showers; Cumulonimbus clouds observed
Temperature: 68 F (20 C)
Dew Point: 60 F (16 C)
Relative Humidity: 77%
Pressure (altimeter): 29.74 in. Hg (1007 hPa)
ob: EHAM 152025Z VRB04KT 6000 SHRA SCT060CB 20/16 Q1007 TEMPO 4000 +SHRA
cycle: 20
Maastricht Airport Zuid Limburg, Netherlands (EHBK) 50-55N 005-47E 116M
Jul 15, 2024 - 04:25 PM EDT / 2024.07.15 2025 UTC
Wind: from the SW (230 degrees) at 8 MPH (7 KT) (direction variable):0
Visibility: 3 mile(s):0
Sky conditions: partly cloudy
Weather: heavy rain showers; Cumulonimbus clouds observed
Temperature: 69 F (21 C)
Dew Point: 64 F (18 C)
Relative Humidity: 82%
Pressure (altimeter): 29.77 in. Hg (1008 hPa)
ob: EHBK 152025Z AUTO 23007KT 200V270 5000 +SHRA FEW015CB SCT041 21/18 Q1008 REUP TEMPO 5000 SHRA RA BKN040 SCT050CB
cycle: 20
Eindhoven, Netherlands (EHEH) 51-27N 005-25E 28M
Jul 15, 2024 - 04:29 PM EDT / 2024.07.15 2029 UTC
Wind: Variable at 2 MPH (2 KT):0
Visibility: greater than 7 mile(s):0
Sky conditions: overcast
Weather: light rain showers; Cumulonimbus clouds observed
Temperature: 68 F (20 C)
Dew Point: 62 F (17 C)
Relative Humidity: 82%
Pressure (altimeter): 29.74 in. Hg (1007 hPa)
ob: EHEH 152029Z AUTO VRB02KT 9999 -SHRA FEW015CB SCT052 BKN079 OVC093 20/17 Q1007 BLU TEMPO 3500 SHRA TSRA SCT035 SCT050CB RMK TREND REMOTE BY EHWX
cycle: 20
Leeuwarden, Netherlands (EHLW) 53-13N 005-46E 11M
Jul 15, 2024 - 04:31 PM EDT / 2024.07.15 2031 UTC
Wind: from the ENE (070 degrees) at 9 MPH (8 KT):0
Visibility: greater than 7 mile(s):0
Sky conditions: overcast
Weather: light rain
Temperature: 62 F (17 C)
Dew Point: 59 F (15 C)
Relative Humidity: 88%
Pressure (altimeter): 29.80 in. Hg (1009 hPa)
ob: EHLW 152031Z AUTO 07008KT 9999 -RA OVC100 17/15 Q1009 BLU
cycle: 20

Daily Fire weather Index for this station

Click here for a daily update of the averages/extremes to date for the month


The data is logged at two minute intervals, but there is data recorded every minute. Best viewed in 800 x 600 and True colour.

This page has AUTO RELOAD facility for the latest data.











This page is updated from recent data collected by a La Crosse 2010 weather station
Use the Reload or Refresh
facility on your browser to retrieve the latest data.










email de weerman



Created by "Weather Display" software version 10.37S at this start time/date 11:58:25 11-7-2024
if(typeof(urchinTracker)!='function')document.write('')